createdAt,value
2023-04-18T00:00:16.917Z,0.00
2023-04-18T00:01:16.898Z,0.00
2023-04-18T00:02:16.981Z,0.00
2023-04-18T00:03:17.137Z,0.00
2023-04-18T00:04:17.236Z,0.00
2023-04-18T00:05:16.881Z,0.00
2023-04-18T00:06:16.875Z,0.00
2023-04-18T00:07:16.861Z,0.00
2023-04-18T00:08:16.860Z,0.00
2023-04-18T00:09:16.878Z,0.00
2023-04-18T00:10:16.849Z,0.00
2023-04-18T00:11:16.839Z,0.00
2023-04-18T00:12:16.786Z,0.00
2023-04-18T00:13:16.794Z,0.00
2023-04-18T00:14:16.824Z,0.00
2023-04-18T00:15:16.789Z,0.00
2023-04-18T00:16:16.904Z,0.00
2023-04-18T00:17:16.749Z,0.00
2023-04-18T00:18:16.746Z,0.00
2023-04-18T00:19:16.709Z,0.00
2023-04-18T00:20:16.731Z,0.00
2023-04-18T00:21:16.733Z,0.00
2023-04-18T00:22:16.725Z,0.00
2023-04-18T00:23:16.680Z,0.00
2023-04-18T00:24:16.670Z,0.00
2023-04-18T00:25:16.667Z,0.00
2023-04-18T00:26:16.680Z,0.00
2023-04-18T00:27:16.616Z,0.00
2023-04-18T00:28:16.669Z,0.00
2023-04-18T00:29:16.610Z,0.00
2023-04-18T00:30:16.620Z,0.00
2023-04-18T00:31:16.634Z,0.00
2023-04-18T00:32:16.649Z,0.00
2023-04-18T00:33:16.591Z,0.00
2023-04-18T00:34:16.562Z,0.00
2023-04-18T00:35:16.539Z,0.00
2023-04-18T00:36:16.556Z,0.00
2023-04-18T00:37:16.560Z,0.00
2023-04-18T00:38:16.539Z,0.00
2023-04-18T00:39:16.541Z,0.00
2023-04-18T00:40:16.524Z,0.00
2023-04-18T00:41:16.495Z,0.00
2023-04-18T00:42:16.487Z,0.00
2023-04-18T00:43:16.501Z,0.00
2023-04-18T00:44:16.537Z,0.00
2023-04-18T00:45:16.448Z,0.00
2023-04-18T00:46:16.545Z,0.00
2023-04-18T00:47:16.429Z,0.00
2023-04-18T00:48:16.458Z,0.00
2023-04-18T00:49:16.446Z,0.00
2023-04-18T00:50:16.419Z,0.00
2023-04-18T00:51:16.451Z,0.00
2023-04-18T00:52:16.398Z,0.00
2023-04-18T00:53:16.380Z,0.00
2023-04-18T00:54:16.433Z,0.00
2023-04-18T00:55:16.349Z,0.00
2023-04-18T00:56:16.359Z,0.00
2023-04-18T00:57:16.336Z,0.00
2023-04-18T00:58:16.308Z,0.00
2023-04-18T00:59:16.299Z,0.00
2023-04-18T01:00:16.314Z,0.00
2023-04-18T01:01:16.346Z,0.00
2023-04-18T01:02:16.354Z,0.00
2023-04-18T01:03:16.375Z,0.00
2023-04-18T01:04:16.506Z,0.00
2023-04-18T01:05:16.301Z,0.00
2023-04-18T01:06:16.249Z,0.00
2023-04-18T01:07:16.228Z,0.00
2023-04-18T01:08:16.215Z,0.00
2023-04-18T01:09:16.208Z,0.00
2023-04-18T01:10:16.200Z,0.00
2023-04-18T01:11:16.238Z,0.00
2023-04-18T01:12:16.158Z,0.00
2023-04-18T01:13:16.204Z,0.00
2023-04-18T01:14:16.152Z,0.00
2023-04-18T01:15:16.135Z,0.00
2023-04-18T01:16:16.181Z,0.00
2023-04-18T01:17:16.121Z,0.00
2023-04-18T01:18:16.223Z,0.00
2023-04-18T01:19:16.092Z,0.00
2023-04-18T01:20:16.133Z,0.00
2023-04-18T01:21:16.067Z,0.00
2023-04-18T01:22:16.083Z,0.00
2023-04-18T01:23:16.057Z,0.00
2023-04-18T01:24:16.330Z,0.00
2023-04-18T01:25:16.032Z,0.00
2023-04-18T01:26:16.047Z,0.00
2023-04-18T01:27:16.066Z,0.00
2023-04-18T01:28:16.061Z,0.00
2023-04-18T01:29:16.012Z,0.00
2023-04-18T01:30:16.000Z,0.00
2023-04-18T01:31:16.012Z,0.00
2023-04-18T01:32:15.948Z,0.00
2023-04-18T01:33:16.003Z,0.00
2023-04-18T01:34:16.021Z,0.00
2023-04-18T01:35:15.949Z,0.00
2023-04-18T01:36:15.945Z,0.00
2023-04-18T01:37:15.934Z,0.00
2023-04-18T01:38:15.922Z,0.00
2023-04-18T01:39:15.904Z,0.00
2023-04-18T01:40:15.886Z,0.00
2023-04-18T01:41:15.892Z,0.00
2023-04-18T01:42:15.908Z,0.00
2023-04-18T01:43:15.884Z,0.00
2023-04-18T01:44:16.050Z,0.00
2023-04-18T01:45:15.835Z,0.00
2023-04-18T01:46:15.918Z,0.00
2023-04-18T01:47:15.838Z,0.00
2023-04-18T01:48:15.823Z,0.00
2023-04-18T01:49:15.803Z,0.00
2023-04-18T01:50:15.815Z,0.00
2023-04-18T01:51:15.764Z,0.00
2023-04-18T01:52:15.767Z,0.00
2023-04-18T01:53:15.756Z,0.00
2023-04-18T01:54:15.972Z,0.00
2023-04-18T01:55:15.775Z,0.00
2023-04-18T01:56:15.820Z,0.00
2023-04-18T01:57:15.708Z,0.00
2023-04-18T01:58:15.692Z,0.00
2023-04-18T01:59:15.699Z,0.00
2023-04-18T02:00:15.707Z,0.00
2023-04-18T02:01:15.695Z,0.00
2023-04-18T02:02:15.843Z,0.00
2023-04-18T02:03:16.421Z,0.00
2023-04-18T02:04:15.939Z,0.00
2023-04-18T02:05:15.682Z,0.00
2023-04-18T02:06:15.791Z,0.00
2023-04-18T02:07:15.591Z,0.00
2023-04-18T02:08:15.633Z,0.00
2023-04-18T02:09:15.585Z,0.00
2023-04-18T02:10:15.584Z,0.00
2023-04-18T02:11:15.670Z,0.00
2023-04-18T02:12:15.573Z,0.00
2023-04-18T02:13:15.532Z,0.00
2023-04-18T02:14:15.711Z,0.00
2023-04-18T02:15:15.600Z,0.00
2023-04-18T02:16:15.626Z,0.00
2023-04-18T02:17:15.520Z,0.00
2023-04-18T02:18:15.498Z,0.00
2023-04-18T02:19:15.521Z,0.00
2023-04-18T02:20:15.477Z,0.00
2023-04-18T02:21:15.458Z,0.00
2023-04-18T02:22:15.488Z,0.00
2023-04-18T02:23:15.472Z,0.00
2023-04-18T02:24:15.574Z,0.00
2023-04-18T02:25:15.483Z,0.00
2023-04-18T02:26:15.476Z,0.00
2023-04-18T02:27:15.603Z,0.00
2023-04-18T02:28:15.568Z,0.00
2023-04-18T02:29:15.447Z,0.00
2023-04-18T02:30:15.403Z,0.00
2023-04-18T02:31:15.382Z,0.00
2023-04-18T02:32:15.361Z,0.00
2023-04-18T02:33:15.339Z,0.00
2023-04-18T02:34:15.430Z,0.00
2023-04-18T02:35:15.352Z,0.00
2023-04-18T02:36:15.333Z,0.00
2023-04-18T02:37:15.336Z,0.00
2023-04-18T02:38:15.297Z,0.00
2023-04-18T02:39:15.283Z,0.00
2023-04-18T02:40:15.268Z,0.00
2023-04-18T02:41:15.406Z,0.00
2023-04-18T02:42:15.281Z,0.00
2023-04-18T02:43:15.286Z,0.00
2023-04-18T02:44:15.439Z,0.00
2023-04-18T02:45:15.230Z,0.00
2023-04-18T02:46:15.275Z,0.00
2023-04-18T02:47:15.201Z,0.00
2023-04-18T02:48:15.316Z,0.00
2023-04-18T02:49:15.195Z,0.00
2023-04-18T02:50:15.176Z,0.00
2023-04-18T02:51:15.141Z,0.00
2023-04-18T02:52:15.149Z,0.00
2023-04-18T02:53:15.138Z,0.00
2023-04-18T02:54:15.374Z,0.00
2023-04-18T02:55:15.132Z,0.00
2023-04-18T02:56:15.095Z,0.00
2023-04-18T02:57:15.130Z,0.00
2023-04-18T02:58:15.150Z,0.00
2023-04-18T02:59:15.090Z,0.00
2023-04-18T03:00:15.221Z,0.00
2023-04-18T03:01:15.096Z,0.00
2023-04-18T03:02:15.150Z,0.00
2023-04-18T03:03:15.079Z,0.00
2023-04-18T03:04:15.224Z,0.00
2023-04-18T03:05:15.978Z,0.00
2023-04-18T03:06:15.031Z,0.00
2023-04-18T03:07:15.044Z,0.00
2023-04-18T03:08:14.984Z,0.00
2023-04-18T03:09:14.979Z,0.00
2023-04-18T03:10:14.988Z,0.00
2023-04-18T03:11:14.992Z,0.00
2023-04-18T03:12:15.113Z,0.00
2023-04-18T03:13:14.932Z,0.00
2023-04-18T03:14:15.126Z,0.00
2023-04-18T03:15:14.939Z,0.00
2023-04-18T03:16:14.925Z,0.00
2023-04-18T03:17:14.882Z,0.00
2023-04-18T03:18:14.945Z,0.00
2023-04-18T03:19:14.893Z,0.00
2023-04-18T03:20:14.897Z,0.00
2023-04-18T03:21:14.897Z,0.00
2023-04-18T03:22:14.860Z,0.00
2023-04-18T03:23:14.867Z,0.00
2023-04-18T03:24:15.094Z,0.00
2023-04-18T03:25:14.818Z,0.00
2023-04-18T03:26:14.837Z,0.00
2023-04-18T03:27:14.852Z,0.00
2023-04-18T03:28:14.797Z,0.00
2023-04-18T03:29:14.816Z,0.00
2023-04-18T03:30:14.766Z,0.00
2023-04-18T03:31:14.818Z,0.00
2023-04-18T03:32:14.758Z,0.00
2023-04-18T03:33:14.787Z,0.00
2023-04-18T03:34:14.898Z,0.00
2023-04-18T03:35:14.750Z,0.00
2023-04-18T03:36:14.696Z,0.00
2023-04-18T03:37:14.727Z,0.00
2023-04-18T03:38:14.735Z,0.00
2023-04-18T03:39:14.721Z,0.00
2023-04-18T03:40:14.735Z,0.00
2023-04-18T03:41:14.678Z,0.00
2023-04-18T03:42:14.657Z,0.00
2023-04-18T03:43:14.645Z,0.00
2023-04-18T03:44:14.855Z,0.00
2023-04-18T03:45:14.664Z,0.00
2023-04-18T03:46:14.706Z,0.00
2023-04-18T03:47:14.608Z,0.00
2023-04-18T03:48:14.526Z,1.00
2023-04-18T03:49:14.578Z,0.00
2023-04-18T03:50:14.584Z,0.00
2023-04-18T03:51:14.561Z,0.00
2023-04-18T03:52:14.553Z,0.00
2023-04-18T03:53:14.571Z,0.00
2023-04-18T03:54:14.716Z,0.00
2023-04-18T03:55:14.529Z,0.00
2023-04-18T03:56:14.483Z,1.00
2023-04-18T03:57:14.442Z,1.00
2023-04-18T03:58:14.444Z,1.00
2023-04-18T03:59:14.510Z,1.00
2023-04-18T04:00:14.460Z,1.00
2023-04-18T04:01:14.510Z,2.00
2023-04-18T04:02:14.494Z,0.00
2023-04-18T04:03:14.489Z,2.00
2023-04-18T04:04:14.776Z,1.00
2023-04-18T04:05:14.461Z,0.00
2023-04-18T04:06:14.356Z,2.00
2023-04-18T04:07:14.513Z,1.00
2023-04-18T04:08:14.372Z,2.00
2023-04-18T04:09:14.327Z,2.00
2023-04-18T04:10:14.310Z,2.00
2023-04-18T04:11:14.328Z,2.00
2023-04-18T04:12:14.310Z,2.00
2023-04-18T04:13:14.334Z,6.00
2023-04-18T04:14:14.462Z,4.00
2023-04-18T04:15:14.368Z,5.00
2023-04-18T04:16:14.372Z,6.00
2023-04-18T04:17:14.252Z,7.00
2023-04-18T04:18:14.236Z,9.00
2023-04-18T04:19:14.253Z,10.00
2023-04-18T04:20:14.804Z,11.00
2023-04-18T04:21:14.212Z,13.00
2023-04-18T04:22:14.272Z,14.00
2023-04-18T04:23:14.245Z,17.00
2023-04-18T04:24:14.309Z,18.00
2023-04-18T04:25:14.210Z,23.00
2023-04-18T04:26:14.176Z,25.00
2023-04-18T04:27:14.152Z,32.00
2023-04-18T04:28:14.191Z,39.00
2023-04-18T04:29:14.161Z,45.00
2023-04-18T04:30:14.155Z,51.00
2023-04-18T04:31:14.145Z,55.00
2023-04-18T04:32:14.099Z,58.00
2023-04-18T04:33:14.113Z,67.00
2023-04-18T04:34:14.490Z,73.00
2023-04-18T04:35:14.068Z,80.00
2023-04-18T04:36:14.516Z,88.00
2023-04-18T04:37:14.176Z,97.00
2023-04-18T04:38:14.040Z,101.00
2023-04-18T04:39:14.033Z,114.00
2023-04-18T04:40:14.054Z,123.00
2023-04-18T04:41:14.030Z,134.00
2023-04-18T04:42:14.111Z,142.00
2023-04-18T04:43:13.979Z,150.00
2023-04-18T04:44:14.142Z,158.00
2023-04-18T04:45:14.075Z,167.00
2023-04-18T04:46:14.031Z,186.00
2023-04-18T04:47:13.998Z,207.00
2023-04-18T04:48:13.930Z,215.00
2023-04-18T04:49:13.927Z,226.00
2023-04-18T04:50:13.942Z,229.00
2023-04-18T04:51:13.952Z,230.00
2023-04-18T04:52:13.886Z,251.00
2023-04-18T04:53:13.902Z,269.00
2023-04-18T04:54:14.312Z,285.00
2023-04-18T04:55:13.939Z,307.00
2023-04-18T04:56:13.869Z,321.00
2023-04-18T04:57:13.889Z,333.00
2023-04-18T04:58:13.913Z,355.00
2023-04-18T04:59:13.824Z,362.00
2023-04-18T05:00:13.839Z,375.00
2023-04-18T05:01:13.889Z,401.00
2023-04-18T05:02:13.893Z,424.00
2023-04-18T05:03:13.999Z,452.00
2023-04-18T05:04:14.267Z,495.00
2023-04-18T05:05:13.831Z,529.00
2023-04-18T05:06:13.885Z,552.00
2023-04-18T05:07:13.781Z,550.00
2023-04-18T05:08:13.769Z,585.00
2023-04-18T05:09:13.745Z,590.00
2023-04-18T05:10:13.752Z,602.00
2023-04-18T05:11:13.786Z,643.00
2023-04-18T05:12:13.709Z,661.00
2023-04-18T05:13:13.732Z,695.00
2023-04-18T05:14:13.872Z,693.00
2023-04-18T05:15:13.696Z,681.00
2023-04-18T05:16:13.732Z,696.00
2023-04-18T05:17:13.696Z,737.00
2023-04-18T05:18:13.694Z,714.00
2023-04-18T05:19:13.678Z,756.00
2023-04-18T05:20:13.637Z,768.00
2023-04-18T05:21:13.714Z,791.00
2023-04-18T05:22:13.630Z,800.00
2023-04-18T05:23:13.695Z,834.00
2023-04-18T05:24:13.866Z,870.00
2023-04-18T05:25:13.720Z,892.00
2023-04-18T05:26:13.569Z,903.00
2023-04-18T05:27:13.574Z,906.00
2023-04-18T05:28:13.639Z,972.00
2023-04-18T05:29:13.684Z,1056.00
2023-04-18T05:30:13.534Z,996.00
2023-04-18T05:31:13.578Z,920.00
2023-04-18T05:32:13.509Z,881.00
2023-04-18T05:33:13.524Z,760.00
2023-04-18T05:34:13.758Z,805.00
2023-04-18T05:35:13.656Z,717.00
2023-04-18T05:36:13.453Z,696.00
2023-04-18T05:37:13.674Z,676.00
2023-04-18T05:38:13.453Z,679.00
2023-04-18T05:39:13.468Z,678.00
2023-04-18T05:40:13.467Z,645.00
2023-04-18T05:41:13.424Z,581.00
2023-04-18T05:42:13.439Z,587.00
2023-04-18T05:43:13.394Z,630.00
2023-04-18T05:44:13.393Z,596.00
2023-04-18T05:45:13.516Z,540.00
2023-04-18T05:46:13.464Z,512.00
2023-04-18T05:47:13.567Z,499.00
2023-04-18T05:48:14.709Z,476.00
2023-04-18T05:49:13.329Z,478.00
2023-04-18T05:50:13.338Z,488.00
2023-04-18T05:51:13.334Z,489.00
2023-04-18T05:52:13.351Z,500.00
2023-04-18T05:53:13.377Z,474.00
2023-04-18T05:54:13.721Z,501.00
2023-04-18T05:55:13.340Z,715.00
2023-04-18T05:56:13.296Z,603.00
2023-04-18T05:57:13.836Z,625.00
2023-04-18T05:58:13.293Z,584.00
2023-04-18T05:59:13.286Z,611.00
2023-04-18T06:00:13.236Z,610.00
2023-04-18T06:01:13.226Z,632.00
2023-04-18T06:02:13.688Z,615.00
2023-04-18T06:03:13.368Z,615.00
2023-04-18T06:04:13.612Z,628.00
2023-04-18T06:05:13.346Z,791.00
2023-04-18T06:06:13.178Z,777.00
2023-04-18T06:07:13.358Z,865.00
2023-04-18T06:08:13.149Z,750.00
2023-04-18T06:09:13.309Z,811.00
2023-04-18T06:10:13.280Z,955.00
2023-04-18T06:11:13.262Z,1035.00
2023-04-18T06:12:13.364Z,1077.00
2023-04-18T06:13:13.101Z,910.00
2023-04-18T06:14:13.501Z,859.00
2023-04-18T06:15:13.258Z,786.00
2023-04-18T06:16:13.149Z,676.00
2023-04-18T06:17:13.557Z,707.00
2023-04-18T06:18:13.122Z,860.00
2023-04-18T06:19:13.070Z,924.00
2023-04-18T06:20:13.092Z,874.00
2023-04-18T06:21:13.463Z,851.00
2023-04-18T06:22:13.023Z,741.00
2023-04-18T06:23:13.110Z,668.00
2023-04-18T06:24:13.258Z,556.00
2023-04-18T06:25:13.141Z,469.00
2023-04-18T06:26:13.029Z,444.00
2023-04-18T06:27:24.424Z,467.00
2023-04-18T06:28:13.013Z,523.00
2023-04-18T06:29:13.066Z,581.00
2023-04-18T06:30:13.067Z,592.00
2023-04-18T06:31:13.115Z,629.00
2023-04-18T06:32:12.916Z,665.00
2023-04-18T06:33:12.936Z,614.00
2023-04-18T06:34:13.189Z,618.00
2023-04-18T06:35:12.939Z,675.00
2023-04-18T06:36:12.971Z,660.00
2023-04-18T06:37:12.871Z,668.00
2023-04-18T06:38:12.906Z,664.00
2023-04-18T06:39:12.987Z,676.00
2023-04-18T06:40:12.894Z,669.00
2023-04-18T06:41:13.013Z,650.00
2023-04-18T06:42:12.866Z,667.00
2023-04-18T06:43:12.902Z,639.00
2023-04-18T06:44:12.833Z,644.00
2023-04-18T06:45:12.811Z,801.00
2023-04-18T06:46:12.988Z,953.00
2023-04-18T06:47:12.810Z,1118.00
2023-04-18T06:48:12.784Z,1089.00
2023-04-18T06:49:12.771Z,1009.00
2023-04-18T06:50:12.886Z,920.00
2023-04-18T06:51:12.821Z,866.00
2023-04-18T06:52:12.735Z,852.00
2023-04-18T06:53:12.762Z,770.00
2023-04-18T06:54:12.937Z,803.00
2023-04-18T06:55:12.785Z,831.00
2023-04-18T06:56:12.730Z,821.00
2023-04-18T06:57:12.762Z,796.00
2023-04-18T06:58:12.687Z,758.00
2023-04-18T06:59:12.873Z,700.00
2023-04-18T07:00:12.676Z,598.00
2023-04-18T07:01:12.717Z,514.00
2023-04-18T07:02:12.687Z,497.00
2023-04-18T07:03:13.700Z,505.00
2023-04-18T07:04:13.060Z,518.00
2023-04-18T07:05:12.605Z,710.00
2023-04-18T07:06:12.753Z,835.00
2023-04-18T07:07:12.716Z,853.00
2023-04-18T07:08:12.773Z,798.00
2023-04-18T07:09:12.627Z,753.00
2023-04-18T07:10:12.633Z,762.00
2023-04-18T07:11:12.615Z,724.00
2023-04-18T07:12:12.551Z,688.00
2023-04-18T07:13:12.660Z,729.00
2023-04-18T07:14:12.943Z,707.00
2023-04-18T07:15:12.613Z,749.00
2023-04-18T07:16:12.591Z,761.00
2023-04-18T07:17:12.638Z,730.00
2023-04-18T07:18:16.130Z,753.00
2023-04-18T07:19:12.497Z,813.00
2023-04-18T07:20:14.225Z,854.00
2023-04-18T07:21:12.579Z,845.00
2023-04-18T07:22:12.465Z,725.00
2023-04-18T07:23:12.769Z,747.00
2023-04-18T07:24:12.812Z,787.00
2023-04-18T07:25:12.419Z,785.00
2023-04-18T07:26:12.472Z,778.00
2023-04-18T07:27:12.503Z,791.00
2023-04-18T07:28:12.394Z,767.00
2023-04-18T07:29:12.443Z,689.00
2023-04-18T07:30:12.350Z,664.00
2023-04-18T07:31:12.461Z,594.00
2023-04-18T07:32:12.443Z,585.00
2023-04-18T07:33:12.353Z,721.00
2023-04-18T07:34:12.393Z,773.00
2023-04-18T07:35:12.327Z,801.00
2023-04-18T07:36:12.530Z,863.00
2023-04-18T07:37:14.685Z,847.00
2023-04-18T07:38:12.261Z,842.00
2023-04-18T07:39:12.247Z,811.00
2023-04-18T07:40:12.279Z,784.00
2023-04-18T07:41:12.213Z,679.00
2023-04-18T07:42:12.260Z,583.00
2023-04-18T07:43:12.215Z,549.00
2023-04-18T07:44:12.588Z,559.00
2023-04-18T07:45:12.217Z,579.00
2023-04-18T07:46:12.307Z,631.00
2023-04-18T07:47:12.284Z,673.00
2023-04-18T07:48:12.233Z,746.00
2023-04-18T07:49:12.396Z,745.00
2023-04-18T07:50:12.194Z,742.00
2023-04-18T07:51:12.405Z,770.00
2023-04-18T07:52:12.169Z,921.00
2023-04-18T07:53:12.119Z,1085.00
2023-04-18T07:54:12.110Z,1100.00
2023-04-18T07:55:12.099Z,1086.00
2023-04-18T07:56:12.152Z,968.00
2023-04-18T07:57:12.059Z,978.00
2023-04-18T07:58:12.085Z,1132.00
2023-04-18T07:59:12.284Z,1163.00
2023-04-18T08:00:12.058Z,1192.00
2023-04-18T08:01:12.062Z,1139.00
2023-04-18T08:02:12.117Z,1122.00
2023-04-18T08:03:12.538Z,1171.00
2023-04-18T08:04:12.204Z,1233.00
2023-04-18T08:05:12.105Z,1178.00
2023-04-18T08:06:11.982Z,1134.00
2023-04-18T08:07:12.035Z,1033.00
2023-04-18T08:08:12.064Z,1042.00
2023-04-18T08:09:12.375Z,1069.00
2023-04-18T08:10:11.937Z,1031.00
2023-04-18T08:11:11.940Z,1000.00
2023-04-18T08:12:12.063Z,939.00
2023-04-18T08:13:11.917Z,943.00
2023-04-18T08:14:11.948Z,900.00
2023-04-18T08:15:12.157Z,1021.00
2023-04-18T08:16:11.928Z,1064.00
2023-04-18T08:17:11.883Z,1035.00
2023-04-18T08:18:11.935Z,1105.00
2023-04-18T08:19:12.008Z,1221.00
2023-04-18T08:20:11.875Z,1188.00
2023-04-18T08:21:11.864Z,1133.00
2023-04-18T08:22:11.842Z,1259.00
2023-04-18T08:23:13.233Z,1246.00
2023-04-18T08:24:11.849Z,1094.00
2023-04-18T08:25:11.810Z,1049.00
2023-04-18T08:26:11.804Z,881.00
2023-04-18T08:27:12.682Z,908.00
2023-04-18T08:28:11.971Z,1089.00
2023-04-18T08:29:12.009Z,1258.00
2023-04-18T08:30:11.844Z,1280.00
2023-04-18T08:31:12.004Z,1140.00
2023-04-18T08:32:12.228Z,1049.00
2023-04-18T08:33:11.855Z,967.00
2023-04-18T08:34:11.734Z,1015.00
2023-04-18T08:35:11.763Z,1105.00
2023-04-18T08:36:11.681Z,1073.00
2023-04-18T08:37:11.750Z,1091.00
2023-04-18T08:38:11.713Z,1072.00
2023-04-18T08:39:12.063Z,999.00
2023-04-18T08:40:11.696Z,1069.00
2023-04-18T08:41:12.567Z,991.00
2023-04-18T08:42:11.607Z,1002.00
2023-04-18T08:43:11.636Z,1035.00
2023-04-18T08:44:11.652Z,1046.00
2023-04-18T08:45:11.620Z,1124.00
2023-04-18T08:46:11.627Z,1108.00
2023-04-18T08:47:11.561Z,1194.00
2023-04-18T08:48:11.650Z,1117.00
2023-04-18T08:49:12.071Z,1149.00
2023-04-18T08:50:11.517Z,1228.00
2023-04-18T08:51:11.517Z,1298.00
2023-04-18T08:52:11.536Z,1392.00
2023-04-18T08:53:11.518Z,1527.00
2023-04-18T08:54:11.609Z,1759.00
2023-04-18T08:55:11.466Z,1913.00
2023-04-18T08:56:11.504Z,1913.00
2023-04-18T08:57:11.532Z,1904.00
2023-04-18T08:58:11.503Z,1758.00
2023-04-18T08:59:11.619Z,1585.00
2023-04-18T09:00:11.494Z,1708.00
2023-04-18T09:01:11.468Z,1921.00
2023-04-18T09:02:11.462Z,1923.00
2023-04-18T09:03:11.417Z,1825.00
2023-04-18T09:04:11.397Z,1738.00
2023-04-18T09:05:11.599Z,1681.00
2023-04-18T09:06:11.383Z,1727.00
2023-04-18T09:07:11.446Z,1744.00
2023-04-18T09:08:11.390Z,1748.00
2023-04-18T09:09:11.548Z,1839.00
2023-04-18T09:10:11.408Z,1668.00
2023-04-18T09:11:11.326Z,1727.00
2023-04-18T09:12:11.348Z,1765.00
2023-04-18T09:13:11.306Z,1874.00
2023-04-18T09:14:11.390Z,2058.00
2023-04-18T09:15:11.296Z,2223.00
2023-04-18T09:16:11.309Z,2040.00
2023-04-18T09:17:11.338Z,1991.00
2023-04-18T09:18:11.280Z,2042.00
2023-04-18T09:19:11.417Z,2073.00
2023-04-18T09:20:11.710Z,2017.00
2023-04-18T09:21:11.245Z,1934.00
2023-04-18T09:22:11.312Z,2085.00
2023-04-18T09:23:11.581Z,2218.00
2023-04-18T09:24:11.436Z,2444.00
2023-04-18T09:25:11.169Z,2593.00
2023-04-18T09:26:11.888Z,2678.00
2023-04-18T09:27:11.164Z,2617.00
2023-04-18T09:28:11.276Z,2318.00
2023-04-18T09:29:11.233Z,2263.00
2023-04-18T09:30:11.135Z,2672.00
2023-04-18T09:31:11.151Z,2953.00
2023-04-18T09:32:11.114Z,2614.00
2023-04-18T09:33:11.092Z,3043.00
2023-04-18T09:34:11.125Z,2513.00
2023-04-18T09:35:11.071Z,1063.00
2023-04-18T09:36:11.086Z,3430.00
2023-04-18T09:37:11.183Z,3376.00
2023-04-18T09:38:11.106Z,760.00
2023-04-18T09:39:11.015Z,3473.00
2023-04-18T09:40:11.038Z,1819.00
2023-04-18T09:41:11.066Z,1911.00
2023-04-18T09:42:11.036Z,1623.00
2023-04-18T09:43:10.985Z,3742.00
2023-04-18T09:44:13.926Z,2480.00
2023-04-18T09:45:10.961Z,1160.00
2023-04-18T09:46:10.989Z,3416.00
2023-04-18T09:47:10.975Z,3641.00
2023-04-18T09:48:11.003Z,5228.00
2023-04-18T09:49:11.191Z,3353.00
2023-04-18T09:50:11.184Z,1578.00
2023-04-18T09:51:11.498Z,3885.00
2023-04-18T09:52:10.950Z,2301.00
2023-04-18T09:53:10.946Z,4985.00
2023-04-18T09:54:10.969Z,3649.00
2023-04-18T09:55:11.243Z,1915.00
2023-04-18T09:56:10.910Z,2347.00
2023-04-18T09:57:10.870Z,3064.00
2023-04-18T09:58:10.961Z,4672.00
2023-04-18T09:59:10.844Z,3287.00
2023-04-18T10:00:10.866Z,1586.00
2023-04-18T10:01:10.988Z,4144.00
2023-04-18T10:02:10.870Z,5015.00
2023-04-18T10:03:10.936Z,1927.00
2023-04-18T10:04:10.923Z,2922.00
2023-04-18T10:05:10.789Z,2928.00
2023-04-18T10:06:10.804Z,3642.00
2023-04-18T10:07:10.744Z,4025.00
2023-04-18T10:08:10.794Z,3612.00
2023-04-18T10:09:10.756Z,3576.00
2023-04-18T10:10:10.848Z,3553.00
2023-04-18T10:11:10.738Z,3657.00
2023-04-18T10:12:10.833Z,3507.00
2023-04-18T10:13:10.667Z,3503.00
2023-04-18T10:14:10.731Z,4000.00
2023-04-18T10:15:10.733Z,2362.00
2023-04-18T10:16:10.776Z,3023.00
2023-04-18T10:17:11.361Z,3322.00
2023-04-18T10:18:10.654Z,3270.00
2023-04-18T10:19:10.884Z,3273.00
2023-04-18T10:20:10.628Z,3159.00
2023-04-18T10:21:10.604Z,3327.00
2023-04-18T10:22:10.660Z,3263.00
2023-04-18T10:23:10.573Z,4614.00
2023-04-18T10:24:10.653Z,2344.00
2023-04-18T10:25:10.565Z,2106.00
2023-04-18T10:26:10.588Z,3003.00
2023-04-18T10:27:10.706Z,3164.00
2023-04-18T10:28:10.739Z,2727.00
2023-04-18T10:29:10.625Z,4164.00
2023-04-18T10:30:10.571Z,2692.00
2023-04-18T10:31:10.558Z,3190.00
2023-04-18T10:32:10.588Z,2793.00
2023-04-18T10:33:18.406Z,3319.00
2023-04-18T10:34:10.486Z,3019.00
2023-04-18T10:35:10.479Z,2573.00
2023-04-18T10:36:10.492Z,3778.00
2023-04-18T10:37:10.500Z,3168.00
2023-04-18T10:38:10.432Z,3277.00
2023-04-18T10:39:10.495Z,3079.00
2023-04-18T10:40:10.446Z,3049.00
2023-04-18T10:41:10.392Z,2433.00
2023-04-18T10:42:10.396Z,4007.00
2023-04-18T10:43:10.422Z,3042.00
2023-04-18T10:44:10.407Z,3650.00
2023-04-18T10:45:10.387Z,3344.00
2023-04-18T10:46:23.879Z,3135.00
2023-04-18T10:47:10.395Z,1873.00
2023-04-18T10:48:10.415Z,3646.00
2023-04-18T10:49:10.369Z,2060.00
2023-04-18T10:50:10.346Z,3733.00
2023-04-18T10:51:10.294Z,3717.00
2023-04-18T10:52:11.712Z,4598.00
2023-04-18T10:53:10.668Z,2359.00
2023-04-18T10:54:10.540Z,2341.00
2023-04-18T10:55:10.400Z,3218.00
2023-04-18T10:56:10.266Z,4336.00
2023-04-18T10:57:10.237Z,2280.00
2023-04-18T10:58:10.250Z,2922.00
2023-04-18T10:59:10.214Z,3521.00
2023-04-18T11:00:10.348Z,3528.00
2023-04-18T11:01:10.298Z,3443.00
2023-04-18T11:02:10.263Z,3141.00
2023-04-18T11:03:10.337Z,3028.00
2023-04-18T11:04:10.288Z,3065.00
2023-04-18T11:05:10.210Z,3248.00
2023-04-18T11:06:10.169Z,2780.00
2023-04-18T11:07:10.220Z,3636.00
2023-04-18T11:08:10.150Z,3127.00
2023-04-18T11:09:10.127Z,3157.00
2023-04-18T11:10:10.150Z,2860.00
2023-04-18T11:11:10.196Z,2984.00
2023-04-18T11:12:10.121Z,3635.00
2023-04-18T11:13:10.244Z,2127.00
2023-04-18T11:14:10.084Z,2812.00
2023-04-18T11:15:10.076Z,2902.00
2023-04-18T11:16:10.111Z,2884.00
2023-04-18T11:17:10.092Z,2829.00
2023-04-18T11:18:10.882Z,2903.00
2023-04-18T11:19:10.148Z,2783.00
2023-04-18T11:20:10.019Z,2895.00
2023-04-18T11:21:10.020Z,2657.00
2023-04-18T11:22:10.072Z,2406.00
2023-04-18T11:23:10.108Z,2557.00
2023-04-18T11:24:09.981Z,2810.00
2023-04-18T11:25:09.975Z,2838.00
2023-04-18T11:26:09.994Z,2603.00
2023-04-18T11:27:09.984Z,4212.00
2023-04-18T11:28:09.974Z,2501.00
2023-04-18T11:29:09.953Z,849.00
2023-04-18T11:30:09.968Z,2735.00
2023-04-18T11:31:09.989Z,2810.00
2023-04-18T11:32:10.535Z,2741.00
2023-04-18T11:33:10.010Z,2672.00
2023-04-18T11:34:10.038Z,2200.00
2023-04-18T11:35:09.891Z,2298.00
2023-04-18T11:36:09.938Z,2285.00
2023-04-18T11:37:09.871Z,2538.00
2023-04-18T11:38:09.900Z,2611.00
2023-04-18T11:39:09.899Z,2687.00
2023-04-18T11:40:09.851Z,3079.00
2023-04-18T11:41:09.861Z,2557.00
2023-04-18T11:42:09.916Z,3735.00
2023-04-18T11:43:09.853Z,1136.00
2023-04-18T11:44:09.866Z,3880.00
2023-04-18T11:45:09.859Z,3429.00
2023-04-18T11:46:09.793Z,2968.00
2023-04-18T11:47:09.852Z,2688.00
2023-04-18T11:48:09.887Z,3267.00
2023-04-18T11:49:09.780Z,3351.00
2023-04-18T11:50:09.722Z,4352.00
2023-04-18T11:51:09.750Z,941.00
2023-04-18T11:52:09.800Z,2985.00
2023-04-18T11:53:09.773Z,3187.00
2023-04-18T11:54:09.699Z,3085.00
2023-04-18T11:55:09.674Z,3255.00
2023-04-18T11:56:09.686Z,1856.00
2023-04-18T11:57:09.741Z,3084.00
2023-04-18T11:58:09.677Z,3788.00
2023-04-18T11:59:09.816Z,4139.00
2023-04-18T12:00:09.636Z,4335.00
2023-04-18T12:01:10.709Z,2433.00
2023-04-18T12:03:11.849Z,2282.00
2023-04-18T12:04:09.940Z,2633.00
2023-04-18T12:05:09.974Z,2084.00
2023-04-18T12:06:09.645Z,2547.00
2023-04-18T12:07:09.550Z,2247.00
2023-04-18T12:08:09.548Z,2344.00
2023-04-18T12:09:09.563Z,1951.00
2023-04-18T12:10:09.565Z,2541.00
2023-04-18T12:11:09.567Z,3305.00
2023-04-18T12:12:09.542Z,3271.00
2023-04-18T12:13:09.574Z,851.00
2023-04-18T12:14:09.580Z,3773.00
2023-04-18T12:15:09.542Z,2217.00
2023-04-18T12:16:09.551Z,2047.00
2023-04-18T12:17:09.491Z,2064.00
2023-04-18T12:18:09.548Z,800.00
2023-04-18T12:19:09.464Z,3664.00
2023-04-18T12:20:10.387Z,2044.00
2023-04-18T12:21:09.520Z,904.00
2023-04-18T12:22:09.587Z,2348.00
2023-04-18T12:23:09.440Z,3043.00
2023-04-18T12:24:09.424Z,2883.00
2023-04-18T12:25:09.411Z,4860.00
2023-04-18T12:26:09.396Z,1334.00
2023-04-18T12:27:09.367Z,4230.00
2023-04-18T12:28:09.364Z,3115.00
2023-04-18T12:29:09.525Z,1004.00
2023-04-18T12:30:09.484Z,2948.00
2023-04-18T12:31:09.458Z,3214.00
2023-04-18T12:32:09.699Z,3113.00
2023-04-18T12:33:09.408Z,3013.00
2023-04-18T12:34:09.489Z,5257.00
2023-04-18T12:35:09.409Z,2564.00
2023-04-18T12:36:09.653Z,2454.00
2023-04-18T12:37:09.317Z,1483.00